Latest Coastal Weather Observations for Maningrida Airport

IDD60701

Issued at 10:21 am CST Friday 15 December 2017 (issued every 10 minutes, with the page automatically refreshed every 10 minutes)

About coastal observations | Map of coastal stations | Coastal observations for NT | Marine services | Other Formats
Station Details ID: 014405 Name: MANINGRIDA AIRPORT Lat: -12.06 Lon: 134.23 Height: 28.1 m
Data from the previous 72 hours. | See also: Recent months at Maningrida Airport
Date/Time
CST
Temp
°C
Wind Pressure Rain since
9am
mm
Weather Cloud Vis
km
Sea
Height
m
Swell
Dir  Spd
kts
Gust
kts
hPa Trend Height
m
Period
s
Dir
15/10:00am 31.5 WNW 4 7 1008.4 - 0.0 - - 10 - - - -
15/09:30am 31.7 NW 6 9 1008.5 - 0.0 - Partly cloudy 10 - - - -
15/09:00am 31.4 W 3 8 1008.4 - 0.0 - - 10 - - - -
15/08:30am 30.7 WSW 5 8 1008.5 - 0.0 - - 10 - - - -
15/08:00am 29.4 WSW 4 7 1008.4 - 0.0 - Partly cloudy 10 - - - -
15/07:30am 27.5 SSW 4 6 1008.7 - 0.0 - Partly cloudy 10 - - - -
15/07:00am 27.1 SW 3 5 1008.4 - 0.0 - Partly cloudy 10 - - - -
15/06:30am 26.8 SW 3 4 1007.5 - 0.0 - - 10 - - - -
15/06:00am 26.3 SW 3 4 1007.0 - 0.0 - Mostly clear 10 - - - -
15/05:30am 26.6 SSE 3 4 1006.3 - 0.0 - Partly cloudy 10 - - - -
15/05:00am 26.9 S 2 4 1005.8 - 0.0 - Partly cloudy 10 - - - -
15/04:30am 27.0 SW 2 4 1006.0 - 0.0 - Partly cloudy 10 - - - -
15/04:00am 27.0 CALM 0 4 1006.2 - 0.0 - - 10 - - - -
15/03:30am 28.0 SE 1 3 1006.6 - 0.0 - Partly cloudy 10 - - - -
15/03:00am 29.4 NNW 6 9 1006.6 - 0.0 - Mostly cloudy 10 - - - -
15/02:30am 29.5 N 6 7 1006.7 - 0.0 - Partly cloudy 10 - - - -
15/02:00am 29.4 N 6 8 1007.1 - 0.0 - Partly cloudy 10 - - - -
15/01:30am 29.7 N 7 9 1007.3 - 0.0 - Partly cloudy 10 - - - -
15/01:00am 29.6 N 7 9 1007.6 - 0.0 - Partly cloudy 10 - - - -
15/12:30am 29.7 N 7 10 1007.7 - 0.0 - Partly cloudy 10 - - - -
15/12:00am 29.8 N 7 10 1007.7 - 0.0 - Mostly clear 10 - - - -
 
Date/Time
CST
Temp
°C
Wind Pressure Rain since
9am
mm
Weather Cloud Vis
km
Sea
Height
m
Swell
Dir  Spd
kts
Gust
kts
hPa Trend Height
m
Period
s
Dir
14/11:30pm 29.8 N 7 9 1007.8 - 0.0 - Partly cloudy 10 - - - -
14/11:00pm 29.8 N 8 11 1007.9 - 0.0 - Partly cloudy 10 - - - -
14/10:30pm 29.9 N 9 12 1007.9 - 0.0 - - 10 - - - -
14/10:00pm 29.9 N 7 11 1007.5 - 0.0 - Partly cloudy 10 - - - -
14/09:30pm 30.0 N 8 11 1007.0 - 0.0 - - 10 - - - -
14/09:00pm 30.0 N 8 11 1006.7 - 0.0 - - 10 - - - -
14/08:30pm 29.9 N 7 10 1006.3 - 0.0 - - 10 - - - -
14/08:00pm 30.0 N 7 10 1006.0 - 0.0 - - 10 - - - -
14/07:30pm 30.0 NNE 8 11 1005.8 - 0.0 - - 10 - - - -
14/07:00pm 30.1 NNE 7 10 1005.7 - 0.0 - - 10 - - - -
14/06:30pm 30.5 NNE 7 10 1005.5 - 0.0 - - 10 - - - -
14/06:00pm 30.8 NNE 9 11 1005.1 - 0.0 - - 10 - - - -
14/05:30pm 31.1 N 10 14 1004.7 - 0.0 - - 10 - - - -
14/05:00pm 31.5 N 10 14 1004.8 - 0.0 - - 10 - - - -
14/04:30pm 32.0 N 10 13 1004.7 - 0.0 - - 10 - - - -
14/04:00pm 31.9 N 11 13 1004.7 - 0.0 - - 10 - - - -
14/03:30pm 32.0 N 10 13 1004.8 - 0.0 - - 10 - - - -
14/03:00pm 32.5 NNE 11 15 1004.9 - 0.0 - - 10 - - - -
14/02:30pm 32.5 N 10 13 1005.4 - 0.0 - - 10 - - - -
14/02:00pm 32.5 N 11 14 1005.8 - 0.0 - - 10 - - - -
14/01:30pm 32.6 N 11 15 1006.2 - 0.0 - - 10 - - - -
14/01:00pm 32.6 N 12 16 1006.5 - 0.0 - - 10 - - - -
14/12:30pm 32.3 N 11 14 1006.8 - 0.0 - - 10 - - - -
14/12:00pm 32.2 N 11 13 1007.2 - 0.0 - - 10 - - - -
14/11:30am 31.7 N 7 11 1007.5 - 0.0 - - 10 - - - -
14/11:00am 32.2 NNW 6 9 1007.9 - 0.0 - - 10 - - - -
14/10:30am 31.5 NW 5 8 1008.3 - 0.0 - - 10 - - - -
14/10:00am 31.1 NW 5 9 1008.5 - 0.0 - - 10 - - - -
14/09:30am 31.3 WNW 5 8 1008.7 - 0.0 - - 10 - - - -
14/09:00am 30.2 WSW 3 5 1008.7 - 16.0 Rain - 10 - - - -
14/08:30am 29.3 SSW 4 6 1008.7 - 15.8 - - 10 - - - -
14/08:00am 28.4 SW 4 5 1008.5 - 15.8 - - 10 - - - -
14/07:30am 27.6 S 1 3 1008.1 - 15.8 - - 10 - - - -
14/07:00am 26.3 CALM 0 0 1007.9 - 15.8 - - 10 - - - -
14/06:30am 25.2 S 2 3 1007.5 - 15.8 - - 10 - - - -
14/06:00am 25.1 S 4 5 1007.1 - 15.8 - - 10 - - - -
14/05:30am 25.1 SSE 4 5 1007.0 - 15.8 - - 10 - - - -
14/05:00am 25.2 S 4 5 1006.6 - 15.8 - - 10 - - - -
14/04:30am 25.0 S 4 6 1006.8 - 15.8 - - 10 - - - -
14/04:00am 25.2 CALM 0 3 1006.8 - 15.8 - - 10 - - - -
14/03:30am 25.2 CALM 0 1 1006.7 - 15.8 - - 10 - - - -
14/03:00am 24.9 S 3 4 1006.9 - 15.8 - - 10 - - - -
14/02:30am 25.2 S 3 4 1007.2 - 15.8 - Partly cloudy 10 - - - -
14/02:00am 25.2 S 3 4 1007.3 - 15.8 - Partly cloudy 10 - - - -
14/01:30am 25.2 SSW 3 5 1007.7 - 15.8 - - 10 - - - -
14/01:00am 25.0 SSW 4 5 1008.0 - 15.8 - Partly cloudy 10 - - - -
14/12:30am 25.0 SW 3 4 1008.1 - 15.8 - - 10 - - - -
14/12:00am 25.2 WSW 4 5 1008.5 - 15.8 - - 10 - - - -
 
Date/Time
CST
Temp
°C
Wind Pressure Rain since
9am
mm
Weather Cloud Vis
km
Sea
Height
m
Swell
Dir  Spd
kts
Gust
kts
hPa Trend Height
m
Period
s
Dir
13/11:30pm 25.3 WSW 1 3 1008.7 - 15.8 - - 10 - - - -
13/11:00pm 25.4 W 3 5 1008.9 - 15.8 - Partly cloudy 10 - - - -
13/10:30pm 26.0 W 5 7 1008.9 - 15.8 - - 10 - - - -
13/10:00pm 25.2 NNE 1 3 1008.6 - 15.8 - - 10 - - - -
13/09:30pm 24.9 N 9 14 1008.6 - 15.8 - Partly cloudy 10 - - - -
13/09:27pm 24.8 NNE 8 14 1008.7 - 15.8 - Partly cloudy 10 - - - -
13/09:23pm 24.7 ENE 8 17 1008.9 - 15.8 - Partly cloudy 10 - - - -
13/09:09pm 23.3 ENE 15 33 1008.9 - 15.4 - Partly cloudy 1 - - - -
13/09:05pm 23.4 NE 20 33 1008.4 - 15.0 - Partly cloudy 0.9 - - - -
13/09:00pm 22.9 NE 20 32 1008.3 - 11.6 Showers Cloudy 1 - - - -
13/08:52pm 25.2 ENE 13 26 1009.2 - 5.0 - Partly cloudy 5 - - - -
13/08:51pm 25.1 ENE 11 26 1009.2 - 4.6 - Partly cloudy 6 - - - -
13/08:50pm 25.7 NE 10 25 1009.1 - 4.4 - Partly cloudy 9 - - - -
13/08:30pm 28.7 NNE 8 12 1008.3 - 2.8 - Partly cloudy 4 - - - -
13/08:29pm 29.1 NNE 8 12 1008.3 - 2.2 - Partly cloudy 5 - - - -
13/08:00pm 30.9 N 10 13 1007.8 - 0.0 - Partly cloudy 10 - - - -
13/07:30pm 30.8 NNE 9 13 1007.2 - 0.0 - Partly cloudy 10 - - - -
13/07:00pm 30.7 NNE 10 15 1006.7 - 0.0 - - 10 - - - -
13/06:30pm 30.8 N 10 14 1006.4 - 0.0 - - 10 - - - -
13/06:00pm 31.1 N 10 13 1005.8 - 0.0 - - 10 - - - -
13/05:30pm 31.7 N 11 16 1005.5 - 0.0 - - 10 - - - -
13/05:00pm 31.8 N 11 15 1005.2 - 0.0 - Partly cloudy 10 - - - -
13/04:30pm 31.8 N 11 16 1005.3 - 0.0 - - 10 - - - -
13/04:00pm 32.3 NNE 11 15 1005.5 - 0.0 - Partly cloudy 10 - - - -
13/03:30pm 32.5 N 11 16 1005.4 - 0.0 - Partly cloudy 10 - - - -
13/03:00pm 32.9 N 11 16 1005.7 - 0.0 - Mostly clear 10 - - - -
13/02:30pm 32.8 N 12 16 1005.9 - 0.0 - - 10 - - - -
13/02:00pm 32.8 NNE 12 15 1006.5 - 0.0 - - 10 - - - -
13/01:30pm 33.2 N 11 15 1006.8 - 0.0 - - 10 - - - -
13/01:00pm 33.4 N 11 14 1007.1 - 0.0 - - 10 - - - -
13/12:30pm 33.0 N 12 15 1007.6 - 0.0 - - 10 - - - -
13/12:00pm 33.2 NNE 9 12 1007.9 - 0.0 - Mostly clear 10 - - - -
13/11:30am 33.3 N 8 13 1008.1 - 0.0 - - 10 - - - -
13/11:00am 32.4 NNW 8 13 1008.5 - 0.0 - - 10 - - - -
13/10:30am 32.2 NNW 8 12 1008.7 - 0.0 - - 10 - - - -
13/10:00am 32.2 NNW 8 11 1008.8 - 0.0 - - 10 - - - -
13/09:30am 32.0 NW 6 9 1009.2 - 0.0 - - 10 - - - -
13/09:00am 31.3 WNW 6 9 1009.4 - 1.0 - Mostly clear 10 - - - -
13/08:30am 30.5 W 4 6 1009.3 - 1.0 - Partly cloudy 10 - - - -
13/08:00am 30.4 SW 4 7 1008.8 - 1.0 - - 10 - - - -
13/07:30am 29.3 WSW 3 4 1008.9 - 1.0 - - 10 - - - -
13/07:00am 28.2 SSW 2 4 1008.6 - 1.0 - Partly cloudy 10 - - - -
13/06:30am 27.2 SSW 3 4 1008.5 - 1.0 - Partly cloudy 10 - - - -
13/06:00am 26.6 SW 3 3 1008.0 - 1.0 - Mostly cloudy 10 - - - -
13/05:30am 27.9 NE 3 5 1007.5 - 1.0 - Partly cloudy 10 - - - -
13/05:00am 29.1 N 5 7 1007.1 - 1.0 - Partly cloudy 10 - - - -
13/04:30am 29.2 N 5 7 1006.8 - 1.0 - Partly cloudy 10 - - - -
13/04:00am 29.1 N 5 7 1006.8 - 1.0 - Partly cloudy 10 - - - -
13/03:30am 29.3 N 6 9 1006.7 - 1.0 - - 10 - - - -
13/03:00am 29.5 N 7 9 1006.9 - 1.0 - Partly cloudy 10 - - - -
13/02:30am 28.3 N 3 4 1007.1 - 1.0 - Partly cloudy 10 - - - -
13/02:00am 27.7 NE 1 4 1007.3 - 1.0 - Partly cloudy 10 - - - -
13/01:30am 28.4 NE 2 3 1007.8 - 1.0 - Partly cloudy 10 - - - -
13/01:00am 28.1 E 2 4 1008.1 - 1.0 - Partly cloudy 10 - - - -
13/12:30am 29.6 N 5 8 1008.1 - 1.0 - - 10 - - - -
13/12:00am 29.7 N 5 7 1008.3 - 1.0 - Partly cloudy 10 - - - -
 
Date/Time
CST
Temp
°C
Wind Pressure Rain since
9am
mm
Weather Cloud Vis
km
Sea
Height
m
Swell
Dir  Spd
kts
Gust
kts
hPa Trend Height
m
Period
s
Dir
12/11:30pm 29.7 NNE 6 8 1008.6 - 1.0 - Partly cloudy 10 - - - -
12/11:00pm 29.8 N 7 10 1008.4 - 1.0 - Partly cloudy 10 - - - -
12/10:30pm 30.0 N 9 11 1008.4 - 1.0 - Partly cloudy 10 - - - -
12/10:00pm 30.0 N 7 9 1008.1 - 1.0 - Partly cloudy 10 - - - -
12/09:30pm 29.9 NNE 6 9 1008.0 - 1.0 - Partly cloudy 10 - - - -
12/09:00pm 30.1 NNE 7 9 1007.9 - 1.0 - Mostly clear 10 - - - -
12/08:30pm 29.7 NE 6 9 1007.3 - 1.0 - - 10 - - - -
12/08:00pm 30.0 NE 7 9 1007.0 - 1.0 - - 10 - - - -
12/07:30pm 30.0 NE 7 10 1007.1 - 1.0 - - 10 - - - -
12/07:00pm 30.1 NE 6 8 1006.9 - 1.0 - - 10 - - - -
12/06:30pm 30.2 NNE 7 9 1006.7 - 1.0 - - 10 - - - -
12/06:00pm 30.5 NE 9 13 1006.4 - 1.0 - - 10 - - - -
12/05:30pm 31.3 NE 10 14 1005.7 - 1.0 - - 10 - - - -
12/05:00pm 32.6 NE 10 15 1005.8 - 1.0 - - 10 - - - -
12/04:30pm 33.0 NE 10 13 1005.7 - 1.0 - - 10 - - - -
12/04:00pm 32.7 NNE 10 15 1005.7 - 1.0 - - 10 - - - -
12/03:30pm 32.2 NNE 12 15 1005.6 - 1.0 - - 10 - - - -
12/03:00pm 32.4 NNE 12 16 1006.2 - 1.0 Recent precip. Mostly clear 10 - - - -
12/02:30pm 32.7 NNE 12 16 1006.5 - 0.8 - - 10 - - - -
12/02:00pm 32.7 N 11 15 1006.9 - 0.8 - Partly cloudy 10 - - - -
12/01:46pm 31.6 NNE 8 11 1007.3 - 0.8 - Partly cloudy 10 - - - -
12/01:33pm 30.1 NE 9 15 1007.7 - 0.8 - Partly cloudy 5 - - - -
12/01:30pm 30.4 NNE 10 15 1007.8 - 0.8 - Partly cloudy 6 - - - -
12/01:00pm 33.7 NNE 12 16 1007.8 - 0.0 - - 10 - - - -
12/12:30pm 34.9 NNE 11 14 1008.1 - 0.0 - - 10 - - - -
12/12:00pm 34.7 NNE 8 11 1008.6 - 0.0 - - 10 - - - -
12/11:30am 35.1 NNW 6 10 1009.0 - 0.0 - - 10 - - - -
12/11:00am 33.6 NNE 7 9 1009.5 - 0.0 - - 10 - - - -
12/10:30am 34.4 NW 6 9 1009.6 - 0.0 - - 10 - - - -

Other Formats:

Comma delimited format used in spreadsheet applications
http://www.bom.gov.au/fwo/IDD60701/IDD60701.95142.axf

JavaScript Object Notation format (JSON) in row-major order
http://www.bom.gov.au/fwo/IDD60701/IDD60701.95142.json